Форум Города N

Информация о пользователе

Привет, Гость! Войдите или зарегистрируйтесь.


Вы здесь » Форум Города N » Black Metal


Black Metal

Тем 461 страница 480 из 521

Тема Ответов Просмотров Последнее сообщение
461 Numen [Black/Folk Metal]  MoonTemple
0 56 2008-05-09 02:39:01  MoonTemple
462 Spetälsk [True Black]  MoonTemple
0 64 2008-05-09 00:55:39  MoonTemple
0 64 2008-05-08 23:07:47  MoonTemple
464 Nåstrond [Black Metal]  MoonTemple
0 82 2008-05-08 22:41:24  MoonTemple
465 Mütiilation [Black Metal]  dying_inside
1 181 2008-05-08 20:48:30  dying_inside
0 77 2008-05-08 18:49:04  MoonTemple
467 Morok [Pagan Black Metal]  Gloomyrain
6 490 2008-05-08 13:25:58  кезиво
1 102 2008-05-08 09:28:10  MoonTemple
0 73 2008-05-08 00:43:01  MoonTemple
0 93 2008-05-04 08:13:53  MoonTemple
0 115 2008-05-02 22:30:43  MoonTemple
0 79 2008-05-02 00:55:42  MoonTemple
473 Blackwinds [Black Metal]  Gloomyrain
0 71 2008-04-29 20:55:47  Gloomyrain
474 Weltkrieg [Black Metal]  MoonTemple
1 139 2008-04-26 14:13:57  Gloomyrain
475 Bann [Depressive Black]  MoonTemple
3 125 2008-04-26 14:02:29  HA7tur
0 112 2008-04-26 11:10:31  Gloomyrain
477 Sorgsvart [Folk Black]  MoonTemple
1 169 2008-04-25 20:15:34  Tony_colpachNIK
3 166 2008-04-24 22:18:17  HA7tur
1 113 2008-04-24 19:10:33  dying_inside
6 329 2008-04-24 12:48:28  Gloomyrain

Вы здесь » Форум Города N » Black Metal


Рейтинг форумов | Создать форум бесплатно © 2007–2017 «QuadroSystems» LLC